Time;durP1;ratioP1;P1;durP2;ratioP2;P2;SDS_P1;SDS_P2;PMS_P1;PMS_P2;Temp;Humidity;BMP_temperature;BMP_pressure;BME280_temperature;BME280_humidity;BME280_pressure;Samples;Min_cycle;Max_cycle;Signal;HPM_P1;HPM_P2
2023/04/30 00:01:13;;;;;;;6.97;6.38;;;11.50;99.90;;;12.17;89.77;98179.31;5113722;28;20213;-65
2023/04/30 00:03:46;;;;;;;6.65;5.95;;;11.50;99.90;;;12.13;89.54;98182.53;5118828;28;20205;-65
2023/04/30 00:06:20;;;;;;;8.68;7.60;;;11.50;99.90;;;11.91;88.74;98187.22;5115505;28;20254;-64
2023/04/30 00:08:54;;;;;;;7.55;6.75;;;11.40;99.90;;;11.95;89.26;98178.91;5115577;28;20228;-65
2023/04/30 00:11:27;;;;;;;6.65;6.05;;;11.40;99.90;;;12.00;89.77;98184.31;5115947;28;20665;-65
2023/04/30 00:14:00;;;;;;;7.18;6.57;;;11.40;99.90;;;12.07;91.38;98184.72;5119240;28;20228;-64
2023/04/30 00:16:33;;;;;;;8.68;7.85;;;11.40;99.90;;;12.04;88.94;98182.00;5118787;28;20299;-65
2023/04/30 00:19:07;;;;;;;7.88;7.28;;;11.40;99.90;;;12.07;88.50;98189.84;5122763;28;20743;-65
2023/04/30 00:21:41;;;;;;;8.95;8.05;;;11.40;99.90;;;11.99;88.96;98193.69;5118594;28;20216;-65
2023/04/30 00:24:14;;;;;;;7.97;7.28;;;11.30;99.90;;;12.04;89.38;98196.47;5114312;28;20204;-65
2023/04/30 00:26:47;;;;;;;8.18;7.38;;;11.30;99.90;;;12.12;88.87;98190.13;5117375;28;20211;-65
2023/04/30 00:29:20;;;;;;;8.60;7.82;;;11.40;99.90;;;12.33;85.78;98193.91;5115461;28;20228;-64
2023/04/30 00:31:53;;;;;;;8.93;8.05;;;11.60;99.90;;;12.20;87.11;98199.13;5116137;28;20678;-65
2023/04/30 00:34:26;;;;;;;8.75;7.95;;;11.50;99.90;;;12.13;87.61;98197.91;5116745;28;20773;-65
2023/04/30 00:37:00;;;;;;;8.82;7.97;;;11.50;99.90;;;12.17;86.58;98204.94;5115846;28;20657;-65
2023/04/30 00:39:33;;;;;;;9.15;8.07;;;11.50;99.90;;;11.96;87.30;98216.56;5117308;28;20224;-65
2023/04/30 00:42:07;;;;;;;9.25;8.35;;;11.40;99.90;;;12.20;87.09;98203.38;5117270;28;20209;-64
2023/04/30 00:44:40;;;;;;;8.50;7.70;;;11.50;99.90;;;12.15;88.14;98197.97;5114331;28;20204;-65
2023/04/30 00:47:13;;;;;;;8.98;8.13;;;11.50;99.90;;;12.23;86.90;98198.41;5116083;28;20201;-65
2023/04/30 00:49:46;;;;;;;8.40;7.60;;;11.50;99.90;;;12.12;86.93;98191.00;5115182;28;20602;-65
2023/04/30 00:52:20;;;;;;;9.27;8.30;;;11.40;99.90;;;12.03;87.29;98195.59;5108864;28;20205;-65
2023/04/30 00:54:53;;;;;;;8.90;8.10;;;11.30;99.90;;;12.14;87.78;98194.53;5117890;28;20709;-64
2023/04/30 00:57:27;;;;;;;9.15;8.32;;;11.40;99.90;;;12.02;87.22;98204.09;5118199;28;20599;-65
2023/04/30 01:00:00;;;;;;;9.25;8.45;;;11.40;99.90;;;11.87;87.92;98206.66;5118383;28;20216;-65
2023/04/30 01:02:33;;;;;;;8.52;7.72;;;11.30;99.90;;;11.79;88.45;98199.28;5113947;28;20603;-65
2023/04/30 01:05:08;;;;;;;8.70;7.93;;;11.20;99.90;;;11.80;88.80;98201.06;5113610;28;20505;-65
2023/04/30 01:07:45;;;;;;;8.63;7.90;;;11.20;99.90;;;11.85;88.28;98194.53;5116171;28;20680;-64
2023/04/30 01:10:19;;;;;;;9.10;8.25;;;11.20;99.90;;;11.73;88.81;98195.59;5114120;28;20734;-66
2023/04/30 01:12:59;;;;;;;9.02;8.10;;;11.10;99.90;;;11.75;89.57;98193.09;5118458;28;20675;-64
2023/04/30 01:15:40;;;;;;;8.93;8.13;;;11.10;99.90;;;11.79;89.72;98199.28;5109603;28;20711;-65
2023/04/30 01:18:21;;;;;;;10.32;9.27;;;11.10;99.90;;;11.62;89.36;98191.53;5114697;28;20265;-64
2023/04/30 01:21:00;;;;;;;9.48;8.55;;;11.00;99.90;;;11.58;89.47;98193.81;5111821;28;20200;-65
2023/04/30 01:23:55;;;;;;;9.10;8.20;;;11.00;99.90;;;11.68;89.66;98199.56;5115676;28;20219;-65
2023/04/30 01:26:57;;;;;;;10.90;9.80;;;11.00;99.90;;;11.66;89.55;98198.56;5116039;28;20238;-65
2023/04/30 01:29:34;;;;;;;9.85;8.98;;;11.00;99.90;;;11.67;89.13;98205.47;5117274;28;20699;-64
2023/04/30 01:32:07;;;;;;;9.25;8.43;;;11.00;99.90;;;11.72;89.72;98211.72;5113294;28;20783;-64
2023/04/30 01:34:40;;;;;;;9.55;8.73;;;11.00;99.90;;;11.70;89.02;98208.22;5116385;28;20561;-65
2023/04/30 01:37:22;;;;;;;9.27;8.48;;;11.00;99.90;;;11.70;90.47;98204.75;5114259;28;20208;-64
2023/04/30 01:40:09;;;;;;;10.40;9.50;;;11.00;99.90;;;11.55;89.80;98201.31;5114170;28;20239;-64
2023/04/30 01:42:53;;;;;;;10.38;9.20;;;11.00;99.90;;;11.59;89.45;98209.28;5116152;28;20219;-65
2023/04/30 01:45:50;;;;;;;10.48;9.48;;;11.00;99.90;;;11.43;90.65;98204.03;5116042;28;20205;-65
2023/04/30 01:48:35;;;;;;;10.57;9.60;;;10.80;99.90;;;11.40;90.64;98201.28;5114405;28;20232;-65
2023/04/30 01:51:19;;;;;;;9.63;8.73;;;10.80;99.90;;;11.43;90.96;98204.03;5116073;28;20197;-65
2023/04/30 01:53:57;;;;;;;10.02;9.02;;;10.80;99.90;;;11.39;91.06;98209.75;5111258;28;20583;-65
2023/04/30 01:56:33;;;;;;;11.23;10.13;;;10.80;99.90;;;11.33;91.09;98207.75;5116178;28;20205;-65
2023/04/30 01:59:06;;;;;;;11.75;10.57;;;10.70;99.90;;;11.30;91.66;98201.53;5116465;28;20246;-65
2023/04/30 02:01:41;;;;;;;10.95;9.85;;;10.70;99.90;;;11.26;91.66;98191.13;5114453;28;20635;-65
2023/04/30 02:04:14;;;;;;;10.80;9.63;;;10.70;99.90;;;11.24;92.09;98195.25;5107574;28;20209;-64
2023/04/30 02:06:47;;;;;;;10.60;9.60;;;10.70;99.90;;;11.16;92.34;98188.81;5115475;28;20215;-64
2023/04/30 02:09:22;;;;;;;10.38;9.40;;;10.60;99.90;;;11.26;91.99;98195.34;5116993;28;20228;-65
2023/04/30 02:11:56;;;;;;;10.90;9.90;;;10.70;99.90;;;11.23;92.57;98190.94;5115815;28;20299;-65
2023/04/30 02:14:31;;;;;;;11.23;10.20;;;10.60;99.90;;;11.26;92.65;98185.13;5114603;28;20581;-64
2023/04/30 02:17:05;;;;;;;12.18;10.75;;;10.60;99.90;;;11.36;92.18;98194.22;5113138;28;20949;-64
2023/04/30 02:19:38;;;;;;;11.90;10.48;;;10.70;99.90;;;11.34;93.12;98198.38;5115109;28;20232;-65
2023/04/30 02:22:11;;;;;;;10.63;9.63;;;10.70;99.90;;;11.36;92.96;98207.91;5110023;28;20198;-64
2023/04/30 02:24:44;;;;;;;11.48;10.27;;;10.70;99.90;;;11.29;91.97;98200.66;5114330;28;20201;-65
2023/04/30 02:27:20;;;;;;;10.18;9.20;;;10.70;99.90;;;11.33;92.61;98211.94;5117587;28;20291;-65
2023/04/30 02:29:53;;;;;;;12.20;11.05;;;10.70;99.90;;;11.40;92.45;98198.75;5117194;28;20228;-64
2023/04/30 02:32:29;;;;;;;10.75;9.75;;;10.70;99.90;;;11.37;92.48;98198.56;5124385;28;20572;-64
2023/04/30 02:35:02;;;;;;;11.38;10.27;;;10.70;99.90;;;11.44;92.23;98200.66;5114859;28;20711;-65
2023/04/30 02:37:35;;;;;;;11.02;9.95;;;10.70;99.90;;;11.53;90.34;98205.44;5118458;28;20201;-64
2023/04/30 02:40:09;;;;;;;13.60;10.90;;;10.80;99.90;;;11.40;91.81;98198.75;5118273;28;20228;-65
2023/04/30 02:42:42;;;;;;;11.90;10.70;;;10.70;99.90;;;11.32;92.05;98202.50;5120114;28;20207;-64
2023/04/30 02:45:15;;;;;;;11.63;10.43;;;10.60;99.90;;;11.32;92.03;98210.19;5118734;28;20201;-64
2023/04/30 02:47:50;;;;;;;11.27;10.25;;;10.50;99.90;;;11.30;91.80;98201.53;5115850;28;20200;-65
2023/04/30 02:50:23;;;;;;;11.85;10.63;;;10.50;99.90;;;11.26;92.82;98195.34;5114325;28;20711;-65
2023/04/30 02:52:56;;;;;;;12.02;10.82;;;10.60;99.90;;;11.07;93.40;98197.59;5118468;28;20201;-64
2023/04/30 02:55:30;;;;;;;12.10;10.90;;;10.50;99.90;;;11.16;93.04;98198.13;5118509;28;20232;-64
2023/04/30 02:58:03;;;;;;;13.40;11.93;;;10.50;99.90;;;11.28;91.97;98202.34;5117055;28;20246;-64
2023/04/30 03:00:36;;;;;;;11.55;10.45;;;10.60;99.90;;;11.13;92.67;98196.31;5119602;28;20205;-64
2023/04/30 03:03:10;;;;;;;13.27;11.93;;;10.50;99.90;;;10.98;92.64;98195.38;5116659;28;20227;-65
2023/04/30 03:05:43;;;;;;;12.30;11.30;;;10.50;99.90;;;11.01;93.26;98198.09;5120729;28;20660;-64
2023/04/30 03:08:16;;;;;;;12.60;11.40;;;10.40;99.90;;;10.95;93.23;98200.28;5115674;28;20228;-65
2023/04/30 03:10:49;;;;;;;14.48;13.05;;;10.40;99.90;;;10.91;93.17;98200.91;5119328;28;20243;-65
2023/04/30 03:13:24;;;;;;;13.55;12.20;;;10.40;99.90;;;10.87;93.20;98201.50;5113159;28;20299;-64
2023/04/30 03:15:58;;;;;;;12.57;11.38;;;10.30;99.90;;;10.85;94.30;98203.09;5113850;28;20224;-64
2023/04/30 03:18:33;;;;;;;12.27;11.13;;;10.30;99.90;;;11.10;93.31;98208.00;5111435;28;20236;-64
2023/04/30 03:21:06;;;;;;;12.15;11.05;;;10.40;99.90;;;11.03;92.92;98202.53;5116601;28;20212;-64
2023/04/30 03:23:39;;;;;;;12.52;11.32;;;10.40;99.90;;;11.00;92.81;98201.47;5116051;28;20219;-63
2023/04/30 03:26:12;;;;;;;13.85;11.68;;;10.40;99.90;;;10.92;93.75;98195.00;5112636;28;20196;-65
2023/04/30 03:28:45;;;;;;;12.57;11.27;;;10.40;99.90;;;10.93;93.71;98204.41;5118157;28;20262;-65
2023/04/30 03:31:18;;;;;;;13.00;11.80;;;10.40;99.90;;;10.93;94.25;98201.88;5114342;28;20673;-64
2023/04/30 03:33:52;;;;;;;12.50;11.25;;;10.30;99.90;;;10.96;93.63;98199.50;5115124;28;20213;-64
2023/04/30 03:36:26;;;;;;;11.18;10.18;;;10.30;99.90;;;10.99;94.86;98199.72;5116894;28;20227;-65
2023/04/30 03:38:59;;;;;;;12.45;11.35;;;10.40;99.90;;;10.97;94.87;98197.03;5114581;28;20285;-64
2023/04/30 03:41:32;;;;;;;11.82;10.65;;;10.30;99.90;;;10.99;94.44;98197.16;5115117;28;20245;-65
2023/04/30 03:44:05;;;;;;;12.73;11.52;;;10.30;99.90;;;11.03;94.10;98201.66;5113657;28;20282;-64
2023/04/30 03:46:38;;;;;;;12.52;11.35;;;10.40;99.90;;;11.09;93.47;98193.47;5117039;28;20585;-64
2023/04/30 03:49:13;;;;;;;12.38;11.18;;;10.40;99.90;;;11.09;94.20;98194.34;5115416;28;20225;-64
2023/04/30 03:51:46;;;;;;;11.70;10.60;;;10.40;99.90;;;11.06;95.06;98199.28;5117206;28;20303;-64
2023/04/30 03:54:19;;;;;;;13.55;12.23;;;10.40;99.90;;;10.98;93.99;98187.69;5117406;28;20704;-63
2023/04/30 03:56:52;;;;;;;11.93;10.73;;;10.30;99.90;;;11.00;94.42;98193.78;5119015;28;20227;-64
2023/04/30 03:59:25;;;;;;;14.13;12.88;;;10.30;99.90;;;10.99;94.75;98197.16;5116391;28;20238;-64
2023/04/30 04:02:00;;;;;;;13.02;11.82;;;10.30;99.90;;;10.94;94.32;98201.09;5113039;28;20565;-65
2023/04/30 04:04:35;;;;;;;13.23;11.93;;;10.20;99.90;;;10.88;94.74;98195.63;5116412;28;20200;-64
2023/04/30 04:07:10;;;;;;;12.30;11.20;;;10.20;99.90;;;10.83;93.87;98198.75;5115213;28;20201;-64
2023/04/30 04:09:44;;;;;;;14.42;12.86;;;10.20;99.90;;;10.86;93.56;98197.19;5105036;28;1049988;-64
2023/04/30 04:12:17;;;;;;;12.88;11.68;;;10.20;99.90;;;10.83;94.58;98198.75;5119072;28;20307;-64
2023/04/30 04:14:50;;;;;;;13.02;11.82;;;10.20;99.90;;;10.92;94.62;98200.09;5115836;28;20204;-64
2023/04/30 04:17:22;;;;;;;13.35;12.15;;;10.20;99.90;;;10.96;94.91;98202.97;5116336;28;20692;-64
2023/04/30 04:19:58;;;;;;;12.23;11.05;;;10.30;99.90;;;10.92;95.16;98208.66;5119601;28;20627;-64
2023/04/30 04:22:31;;;;;;;13.60;12.30;;;10.30;99.90;;;10.96;95.40;98204.59;5115197;28;20215;-65
2023/04/30 04:25:04;;;;;;;13.35;12.15;;;10.30;99.90;;;11.02;95.34;98205.00;5116973;28;20584;-64
2023/04/30 04:27:37;;;;;;;12.63;11.43;;;10.30;99.90;;;11.03;95.91;98211.88;5117063;28;20205;-64
2023/04/30 04:30:12;;;;;;;12.23;11.13;;;10.30;99.90;;;11.04;95.64;98211.06;5116236;28;20248;-64
2023/04/30 04:32:47;;;;;;;13.57;12.27;;;10.30;99.90;;;10.94;95.84;98211.31;5118661;28;20207;-64
2023/04/30 04:35:21;;;;;;;13.85;12.50;;;10.20;99.90;;;10.96;95.70;98214.84;5117159;28;20228;-64
2023/04/30 04:37:55;;;;;;;13.68;12.30;;;10.20;99.90;;;10.82;95.12;98212.34;5115789;28;20227;-64
2023/04/30 04:40:28;;;;;;;13.20;11.90;;;10.20;99.90;;;10.85;95.40;98221.00;5118467;28;20649;-64
2023/04/30 04:43:03;;;;;;;14.30;13.00;;;10.20;99.90;;;10.77;94.18;98226.50;5113854;28;20254;-64
2023/04/30 04:45:36;;;;;;;14.23;12.93;;;10.20;99.90;;;11.05;92.55;98225.66;5114331;28;20205;-64
2023/04/30 04:48:09;;;;;;;15.25;13.65;;;10.30;99.90;;;11.02;92.74;98226.34;5114377;28;20228;-63
2023/04/30 04:50:44;;;;;;;14.68;13.18;;;10.30;99.90;;;11.05;94.26;98229.09;5111506;28;20212;-64
2023/04/30 04:53:16;;;;;;;14.23;12.93;;;10.40;99.90;;;11.06;93.71;98227.41;5117370;28;20210;-64
2023/04/30 04:55:49;;;;;;;13.95;12.57;;;10.40;99.90;;;11.02;93.98;98223.78;5118075;28;20224;-64
2023/04/30 04:58:22;;;;;;;13.43;12.13;;;10.30;99.90;;;11.11;95.86;98230.25;5115699;28;20260;-65
2023/04/30 05:00:56;;;;;;;13.93;12.52;;;10.40;99.90;;;11.20;94.62;98220.59;5111281;28;20203;-64
2023/04/30 05:03:31;;;;;;;13.48;12.27;;;10.50;99.90;;;11.37;93.63;98234.38;5115209;28;20716;-64
2023/04/30 05:06:06;;;;;;;13.15;11.95;;;10.50;99.90;;;11.41;94.04;98226.09;5112989;28;20208;-65
2023/04/30 05:08:39;;;;;;;12.63;11.43;;;10.60;99.90;;;11.46;92.86;98229.81;5113253;28;20641;-65
2023/04/30 05:11:12;;;;;;;13.10;11.88;;;10.60;99.90;;;11.37;92.16;98224.16;5110866;28;20294;-65
2023/04/30 05:13:47;;;;;;;13.07;11.85;;;10.60;99.90;;;11.42;93.47;98218.50;5116650;28;20192;-64
2023/04/30 05:16:21;;;;;;;12.63;11.48;;;10.60;99.90;;;11.53;93.33;98221.69;5113090;28;20231;-65
2023/04/30 05:18:54;;;;;;;13.02;11.82;;;10.70;99.90;;;11.57;92.26;98217.66;5106473;28;20339;-66
2023/04/30 05:21:28;;;;;;;13.95;12.65;;;10.80;99.90;;;11.65;90.35;98219.00;5112281;28;20239;-65
2023/04/30 05:24:02;;;;;;;13.55;12.35;;;10.80;99.90;;;11.48;91.07;98220.56;5109959;28;20214;-65
2023/04/30 05:26:35;;;;;;;12.27;11.15;;;10.80;99.90;;;11.70;91.39;98221.03;5115433;28;20201;-65
2023/04/30 05:29:09;;;;;;;12.65;11.55;;;11.00;99.90;;;11.80;90.55;98221.56;5111668;28;20247;-66
2023/04/30 05:31:42;;;;;;;12.65;11.43;;;11.10;99.90;;;11.99;89.50;98223.50;5113952;28;20212;-66
2023/04/30 05:34:15;;;;;;;12.75;11.65;;;11.30;99.90;;;12.17;88.95;98228.03;5116139;28;20590;-66
2023/04/30 05:36:50;;;;;;;12.95;11.70;;;11.40;99.90;;;12.32;87.04;98214.31;5115843;28;20236;-65
2023/04/30 05:39:23;;;;;;;13.50;12.25;;;11.60;99.90;;;12.61;86.15;98218.47;5115136;28;20242;-65
2023/04/30 05:41:56;;;;;;;12.98;11.77;;;11.90;99.90;;;12.87;84.35;98217.31;5115028;28;20201;-65
2023/04/30 05:44:29;;;;;;;12.32;11.32;;;12.10;99.90;;;12.85;81.59;98218.94;5115700;28;20213;-66
2023/04/30 05:47:03;;;;;;;12.48;11.38;;;12.10;99.90;;;13.14;80.81;98217.03;5111860;28;20224;-67
2023/04/30 05:49:35;;;;;;;12.15;11.00;;;12.30;99.90;;;13.29;81.11;98217.88;5113633;28;20232;-66
2023/04/30 05:52:10;;;;;;;11.68;10.57;;;12.30;99.90;;;13.18;80.89;98226.66;5111732;28;20250;-65
2023/04/30 05:54:43;;;;;;;12.27;11.18;;;12.40;99.90;;;13.01;82.16;98224.06;5111798;28;20207;-64
2023/04/30 05:57:16;;;;;;;12.73;11.73;;;12.20;99.90;;;12.97;80.57;98219.59;5111280;28;20218;-65
2023/04/30 05:59:49;;;;;;;13.00;11.80;;;12.10;99.90;;;13.01;80.55;98226.63;5105264;28;20240;-64
2023/04/30 06:02:22;;;;;;;12.68;11.57;;;12.30;99.90;;;12.79;81.39;98218.56;5114092;28;20209;-65
2023/04/30 06:04:56;;;;;;;13.48;12.18;;;12.20;99.90;;;12.67;81.81;98223.03;5112084;28;20208;-65
2023/04/30 06:07:31;;;;;;;12.55;11.45;;;12.10;99.90;;;12.63;82.66;98227.13;5108773;28;20215;-64
2023/04/30 06:10:05;;;;;;;12.50;11.50;;;12.10;99.90;;;13.14;80.28;98222.16;5111660;28;20228;-64
2023/04/30 06:12:39;;;;;;;13.02;11.93;;;12.40;99.90;;;13.47;77.76;98221.38;5114278;28;20204;-65
2023/04/30 06:15:12;;;;;;;12.93;11.73;;;12.80;99.90;;;13.67;76.88;98221.50;5114397;28;20291;-65
2023/04/30 06:17:45;;;;;;;12.85;11.65;;;12.90;99.90;;;13.41;77.93;98215.91;5110935;28;20315;-65
2023/04/30 06:20:18;;;;;;;11.68;10.68;;;12.80;99.90;;;13.28;78.06;98222.13;5110425;28;20273;-65
2023/04/30 06:22:52;;;;;;;11.73;10.73;;;12.60;99.90;;;13.37;78.30;98220.84;5107442;28;20554;-65
2023/04/30 06:25:26;;;;;;;11.85;10.82;;;12.60;99.90;;;13.72;78.39;98225.19;5111973;28;20208;-65
2023/04/30 06:27:59;;;;;;;11.93;10.82;;;12.90;99.90;;;13.76;77.75;98232.25;5111411;28;20578;-65
2023/04/30 06:30:33;;;;;;;12.43;11.23;;;12.90;99.90;;;13.60;76.58;98225.47;5111281;29;20211;-65
2023/04/30 06:33:06;;;;;;;12.38;11.27;;;12.90;99.90;;;13.43;77.21;98227.16;5113192;28;20212;-65
2023/04/30 06:35:39;;;;;;;12.40;11.40;;;12.80;99.90;;;13.38;76.80;98223.47;5114049;28;20212;-64
2023/04/30 06:38:13;;;;;;;12.15;11.02;;;12.80;99.90;;;13.90;77.37;98230.38;5112384;28;20225;-64
2023/04/30 06:40:47;;;;;;;12.73;11.55;;;13.10;99.90;;;14.27;74.63;98227.91;5112781;28;20606;-64
2023/04/30 06:43:19;;;;;;;12.23;11.23;;;13.40;99.90;;;14.92;73.50;98231.00;5112763;28;20226;-65
2023/04/30 06:45:53;;;;;;;12.15;11.10;;;14.00;99.90;;;15.58;68.79;98224.50;5134298;28;20198;-64
2023/04/30 06:48:26;;;;;;;11.80;10.70;;;14.60;99.90;;;16.24;66.07;98222.16;5110315;28;20585;-65
2023/04/30 06:50:59;;;;;;;12.45;11.43;;;15.30;99.90;;;16.31;63.56;98228.44;5108853;28;20320;-65
2023/04/30 06:53:33;;;;;;;12.85;11.70;;;15.50;99.90;;;16.73;62.30;98229.25;5120146;28;20194;-64
2023/04/30 06:56:07;;;;;;;11.75;10.75;;;15.70;99.90;;;17.11;60.62;98223.00;5115188;28;20230;-64
2023/04/30 06:58:40;;;;;;;12.32;11.32;;;16.00;99.90;;;17.17;57.92;98229.19;5110015;28;20239;-67
2023/04/30 07:01:13;;;;;;;10.93;10.13;;;16.30;99.90;;;17.61;58.60;98227.38;5111316;28;20212;-67
2023/04/30 07:03:46;;;;;;;12.10;11.05;;;16.50;99.90;;;17.69;58.35;98220.75;5111509;28;20247;-68
2023/04/30 07:06:20;;;;;;;10.63;9.73;;;16.50;99.90;;;18.33;57.49;98222.94;5110451;28;20564;-67
2023/04/30 07:08:54;;;;;;;10.82;9.82;;;16.90;99.90;;;18.24;56.72;98220.94;5109447;28;20315;-67
2023/04/30 07:11:27;;;;;;;11.88;10.80;;;17.00;99.90;;;18.64;55.93;98221.31;5111057;28;20311;-67
2023/04/30 07:14:01;;;;;;;12.20;11.00;;;17.50;99.90;;;18.92;52.69;98230.84;5115152;28;20209;-68
2023/04/30 07:16:34;;;;;;;11.60;10.50;;;17.60;99.90;;;18.79;54.87;98226.13;5114690;28;20233;-65
2023/04/30 07:19:07;;;;;;;12.35;11.35;;;17.50;99.90;;;18.75;52.25;98211.34;5115522;28;20260;-64
2023/04/30 07:21:40;;;;;;;10.45;9.60;;;17.30;99.90;;;18.18;51.48;98219.84;5118677;28;20213;-65
2023/04/30 07:24:15;;;;;;;11.30;10.40;;;17.20;99.90;;;18.40;53.19;98222.31;5117432;28;20213;-65
2023/04/30 07:26:48;;;;;;;11.00;9.98;;;16.70;99.90;;;17.79;54.99;98215.09;5117286;28;20200;-64
2023/04/30 07:29:22;;;;;;;10.52;9.65;;;16.30;99.90;;;18.51;54.82;98224.34;5113902;28;20641;-65
2023/04/30 07:31:55;;;;;;;11.73;10.73;;;16.70;99.90;;;18.07;55.31;98209.16;5116668;28;20358;-65
2023/04/30 07:34:28;;;;;;;10.75;9.95;;;16.40;99.90;;;19.02;53.56;98212.13;5112959;28;20581;-65
2023/04/30 07:37:02;;;;;;;10.88;9.95;;;17.00;99.90;;;18.84;50.76;98216.78;5115857;28;20229;-65
2023/04/30 07:39:37;;;;;;;10.68;9.80;;;16.70;99.90;;;18.78;52.00;98212.31;5116435;28;20232;-65
2023/04/30 07:42:10;;;;;;;10.20;9.30;;;17.00;99.90;;;18.96;50.15;98216.28;5130988;28;20204;-64
2023/04/30 07:44:43;;;;;;;11.55;10.55;;;17.10;99.90;;;18.80;49.49;98217.50;5113528;28;20299;-65
2023/04/30 07:47:17;;;;;;;9.90;9.02;;;17.10;99.90;;;19.07;49.69;98202.78;5114873;28;20212;-65
2023/04/30 07:49:50;;;;;;;10.30;9.50;;;17.20;99.90;;;18.78;50.57;98198.47;5110367;28;20232;-65
2023/04/30 07:52:23;;;;;;;9.55;8.77;;;17.50;99.90;;;18.63;53.20;98191.97;5109378;28;20568;-65
2023/04/30 07:54:58;;;;;;;10.15;9.25;;;17.30;99.90;;;18.75;52.30;98200.97;5113261;28;20210;-65
2023/04/30 07:57:31;;;;;;;8.85;8.07;;;17.40;99.90;;;18.93;51.67;98198.06;5112560;28;20224;-65
2023/04/30 08:00:06;;;;;;;10.35;9.55;;;17.80;99.90;;;18.89;50.11;98197.97;5113968;28;20712;-66
2023/04/30 08:02:39;;;;;;;9.10;8.30;;;17.90;99.90;;;18.84;49.36;98204.72;5112662;28;20208;-65
2023/04/30 08:05:12;;;;;;;9.20;8.55;;;18.10;99.90;;;18.36;52.98;98189.38;5114143;28;20204;-65
2023/04/30 08:07:46;;;;;;;10.30;9.50;;;17.60;99.90;;;18.44;49.78;98187.03;5110594;28;20288;-65
2023/04/30 08:10:20;;;;;;;8.88;8.07;;;17.70;99.50;;;18.77;51.47;98197.59;5113580;28;20778;-65
2023/04/30 08:12:53;;;;;;;8.52;7.90;;;18.00;99.90;;;19.00;47.70;98194.78;5112979;28;20710;-65
2023/04/30 08:15:27;;;;;;;8.52;7.82;;;18.30;97.60;;;18.77;47.16;98186.34;5108100;28;20205;-65
2023/04/30 08:18:02;;;;;;;8.02;7.32;;;18.20;96.80;;;18.85;48.13;98188.31;5106588;28;20224;-64
2023/04/30 08:20:35;;;;;;;7.57;6.90;;;18.50;97.40;;;18.69;47.61;98193.88;5115980;28;20196;-65
2023/04/30 08:23:10;;;;;;;7.45;6.85;;;18.20;97.40;;;17.94;49.89;98189.78;5114721;28;20219;-65
2023/04/30 08:25:45;;;;;;;6.78;6.18;;;17.50;98.10;;;17.99;49.78;98188.19;5114199;28;20211;-65
2023/04/30 08:28:18;;;;;;;6.80;6.20;;;17.30;98.40;;;17.67;47.47;98191.38;5112507;28;20287;-65
2023/04/30 08:30:51;;;;;;;6.00;5.53;;;17.20;96.50;;;17.52;46.39;98190.03;5113309;28;20299;-64
2023/04/30 08:33:24;;;;;;;6.32;5.80;;;16.90;96.00;;;17.89;47.81;98188.72;5115773;28;20208;-64
2023/04/30 08:35:58;;;;;;;6.50;6.00;;;17.20;96.90;;;17.61;48.50;98183.41;5132576;28;20604;-65
2023/04/30 08:38:31;;;;;;;6.95;6.32;;;17.00;96.90;;;17.67;47.96;98183.63;5099712;28;20638;-65
2023/04/30 08:41:11;;;;;;;5.93;5.53;;;16.90;96.80;;;17.59;47.36;98190.22;5115111;28;20240;-65
2023/04/30 08:43:45;;;;;;;5.85;5.45;;;16.90;96.30;;;17.15;48.63;98197.28;5116479;28;20295;-64
2023/04/30 08:46:20;;;;;;;4.15;3.85;;;16.50;97.00;;;17.23;43.50;98196.75;5111583;28;20196;-64
2023/04/30 08:48:54;;;;;;;4.93;4.53;;;16.70;92.80;;;17.61;46.67;98210.13;5113608;28;20227;-66
2023/04/30 08:51:31;;;;;;;4.57;4.18;;;16.90;95.70;;;16.98;46.39;98189.78;5107399;28;20232;-64
2023/04/30 08:54:04;;;;;;;4.00;3.75;;;16.40;94.70;;;16.84;44.10;98196.13;5117321;28;20250;-64
2023/04/30 08:56:39;;;;;;;4.22;3.92;;;16.30;93.50;;;17.00;44.52;98189.84;5114432;28;20209;-63
2023/04/30 08:59:13;;;;;;;4.32;4.03;;;16.40;93.70;;;17.09;44.83;98201.41;5115445;28;20227;-63
2023/04/30 09:01:46;;;;;;;4.70;4.30;;;16.40;93.80;;;17.56;45.19;98189.28;5117510;28;20207;-63
2023/04/30 09:04:19;;;;;;;4.78;4.38;;;16.90;94.40;;;17.62;43.71;98205.84;5116155;28;20713;-63
2023/04/30 09:06:57;;;;;;;4.50;4.10;;;17.20;93.30;;;18.00;43.20;98202.91;5116068;28;20200;-63
2023/04/30 09:09:37;;;;;;;4.40;4.00;;;17.50;93.00;;;17.41;43.01;98191.34;5116759;29;20227;-63
2023/04/30 09:12:18;;;;;;;4.47;3.95;;;17.20;92.10;;;17.60;43.05;98208.41;5115148;28;20219;-65
2023/04/30 09:15:00;;;;;;;4.43;4.13;;;17.20;92.00;;;17.60;42.83;98202.31;5112429;28;20327;-63
2023/04/30 09:17:34;;;;;;;3.33;3.13;;;17.10;92.30;;;17.71;42.15;98195.81;5113601;28;20201;-64
2023/04/30 09:20:10;;;;;;;4.00;3.70;;;17.20;91.90;;;17.92;43.00;98188.84;5114464;28;20232;-63
2023/04/30 09:22:43;;;;;;;3.92;3.63;;;17.40;92.10;;;17.99;40.42;98187.31;5116191;28;20208;-63
2023/04/30 09:25:16;;;;;;;3.72;3.53;;;17.60;90.70;;;17.99;41.46;98187.31;5112320;28;20201;-63
2023/04/30 09:28:08;;;;;;;4.10;3.85;;;17.60;90.80;;;17.60;43.95;98181.63;5110937;28;20205;-63
2023/04/30 09:30:41;;;;;;;5.32;4.93;;;17.10;92.40;;;17.12;44.57;98187.72;5112103;28;20212;-64
2023/04/30 09:33:14;;;;;;;5.07;4.68;;;16.70;92.60;;;17.22;45.90;98186.34;5112623;28;20654;-65
2023/04/30 09:35:48;;;;;;;5.60;5.20;;;16.60;94.10;;;17.34;45.33;98184.22;5114243;28;20211;-64
2023/04/30 09:38:29;;;;;;;6.38;5.88;;;16.80;93.30;;;17.05;46.78;98185.72;5105710;28;20229;-63
2023/04/30 09:41:02;;;;;;;5.75;5.25;;;16.70;94.10;;;16.75;48.02;98190.59;5108319;28;20216;-63
2023/04/30 09:43:45;;;;;;;6.40;5.90;;;16.40;95.00;;;16.64;47.50;98188.47;5115398;28;20587;-63
2023/04/30 09:46:20;;;;;;;6.25;5.75;;;16.30;94.60;;;16.25;47.16;98181.75;5115174;28;20200;-64
2023/04/30 09:48:58;;;;;;;6.13;5.63;;;16.00;94.60;;;16.30;47.12;98187.97;5112374;28;20232;-64
2023/04/30 09:51:31;;;;;;;5.60;5.13;;;16.00;94.50;;;16.18;47.02;98189.25;5108615;28;20303;-65
2023/04/30 09:54:10;;;;;;;5.45;5.05;;;15.90;94.00;;;16.35;48.23;98183.91;5113841;28;20205;-63
2023/04/30 09:56:43;;;;;;;5.70;5.30;;;15.90;95.20;;;16.73;45.76;98192.22;5112350;28;20197;-63
2023/04/30 09:59:21;;;;;;;5.72;5.32;;;16.30;93.90;;;16.47;46.63;98189.53;5122826;28;20228;-63
2023/04/30 10:01:55;;;;;;;5.35;4.90;;;16.10;94.00;;;15.94;47.25;98186.56;5114214;28;20201;-64
2023/04/30 10:04:32;;;;;;;5.22;4.82;;;15.80;93.90;;;16.33;46.48;98190.69;5107751;28;20211;-63
2023/04/30 10:07:10;;;;;;;5.75;5.30;;;16.00;93.60;;;16.90;45.31;98198.94;5107338;28;20205;-63
2023/04/30 10:09:51;;;;;;;5.10;4.75;;;16.30;93.50;;;17.10;44.97;98199.69;5107958;28;20305;-63
2023/04/30 10:12:35;;;;;;;5.10;4.70;;;16.60;92.90;;;16.81;45.43;98196.03;5107191;28;20200;-64
2023/04/30 10:15:16;;;;;;;5.40;5.00;;;16.30;93.50;;;17.17;44.92;98185.28;5115261;28;20567;-63
2023/04/30 10:18:00;;;;;;;5.28;4.85;;;16.60;93.20;;;17.01;45.45;98187.31;5109616;28;20291;-64
2023/04/30 10:20:36;;;;;;;4.28;3.97;;;16.30;93.30;;;16.89;45.18;98182.59;5108893;28;20207;-63
2023/04/30 10:23:10;;;;;;;4.75;4.45;;;16.40;93.10;;;16.66;45.53;98176.53;5108280;29;20248;-64
2023/04/30 10:25:44;;;;;;;4.88;4.47;;;16.00;93.10;;;16.90;45.25;98173.13;5107851;28;20215;-63
2023/04/30 10:28:17;;;;;;;4.38;4.05;;;16.20;93.40;;;17.02;45.79;98177.88;5112328;28;20761;-63
2023/04/30 10:30:52;;;;;;;4.82;4.53;;;16.30;93.60;;;16.98;46.49;98169.13;5111897;28;20319;-63
2023/04/30 10:33:48;;;;;;;4.53;4.22;;;16.50;93.70;;;16.99;45.79;98164.84;5113844;29;20212;-63
2023/04/30 10:36:31;;;;;;;4.40;4.10;;;16.40;93.50;;;16.98;45.16;98163.09;5114763;28;20201;-63
2023/04/30 10:39:05;;;;;;;4.60;4.30;;;16.50;92.80;;;17.43;45.17;98170.75;5103396;28;20229;-63
2023/04/30 10:41:38;;;;;;;4.40;4.05;;;16.70;93.60;;;17.76;43.23;98173.59;5111071;28;20680;-65
2023/04/30 10:44:12;;;;;;;4.25;3.85;;;17.00;92.50;;;17.41;44.99;98162.91;5116686;28;20730;-65